sensor_id;sensor_type;location;lat;lon;timestamp;temperature;humidity
21662;DHT22;10992;48.170;8.596;2024-03-06T00:01:57;2.90;99.90
21662;DHT22;10992;48.170;8.596;2024-03-06T00:04:25;2.90;99.90
21662;DHT22;10992;48.170;8.596;2024-03-06T00:06:51;2.90;99.90
21662;DHT22;10992;48.170;8.596;2024-03-06T00:09:19;2.80;99.90
21662;DHT22;10992;48.170;8.596;2024-03-06T00:11:46;2.80;99.90
21662;DHT22;10992;48.170;8.596;2024-03-06T00:14:13;2.80;99.90
21662;DHT22;10992;48.170;8.596;2024-03-06T00:16:40;2.80;99.90
21662;DHT22;10992;48.170;8.596;2024-03-06T00:19:09;2.70;99.90
21662;DHT22;10992;48.170;8.596;2024-03-06T00:21:36;2.70;99.90
21662;DHT22;10992;48.170;8.596;2024-03-06T00:24:03;2.70;99.90
21662;DHT22;10992;48.170;8.596;2024-03-06T00:26:30;2.80;99.90
21662;DHT22;10992;48.170;8.596;2024-03-06T00:28:57;2.80;99.90
21662;DHT22;10992;48.170;8.596;2024-03-06T00:31:27;2.90;99.90
21662;DHT22;10992;48.170;8.596;2024-03-06T00:33:54;2.90;99.90
21662;DHT22;10992;48.170;8.596;2024-03-06T00:36:21;2.90;99.90
21662;DHT22;10992;48.170;8.596;2024-03-06T00:38:49;2.80;99.90
21662;DHT22;10992;48.170;8.596;2024-03-06T00:41:16;2.90;99.90
21662;DHT22;10992;48.170;8.596;2024-03-06T00:43:43;2.90;99.90
21662;DHT22;10992;48.170;8.596;2024-03-06T00:46:10;3.00;99.90
21662;DHT22;10992;48.170;8.596;2024-03-06T00:48:37;3.00;99.90
21662;DHT22;10992;48.170;8.596;2024-03-06T00:51:08;2.90;99.90
21662;DHT22;10992;48.170;8.596;2024-03-06T00:53:35;2.90;99.90
21662;DHT22;10992;48.170;8.596;2024-03-06T00:56:02;2.80;99.90
21662;DHT22;10992;48.170;8.596;2024-03-06T00:58:29;2.80;99.90
21662;DHT22;10992;48.170;8.596;2024-03-06T01:00:56;2.80;99.90
21662;DHT22;10992;48.170;8.596;2024-03-06T01:03:25;2.80;99.90
21662;DHT22;10992;48.170;8.596;2024-03-06T01:05:51;2.80;99.90
21662;DHT22;10992;48.170;8.596;2024-03-06T01:08:22;2.80;99.90
21662;DHT22;10992;48.170;8.596;2024-03-06T01:10:51;2.80;99.90
21662;DHT22;10992;48.170;8.596;2024-03-06T01:13:19;2.80;99.90
21662;DHT22;10992;48.170;8.596;2024-03-06T01:15:46;2.80;99.90
21662;DHT22;10992;48.170;8.596;2024-03-06T01:18:13;2.90;99.90
21662;DHT22;10992;48.170;8.596;2024-03-06T01:20:40;3.00;99.90
21662;DHT22;10992;48.170;8.596;2024-03-06T01:23:07;3.10;99.90
21662;DHT22;10992;48.170;8.596;2024-03-06T01:25:34;3.10;99.90
21662;DHT22;10992;48.170;8.596;2024-03-06T01:28:01;3.10;99.90
21662;DHT22;10992;48.170;8.596;2024-03-06T01:30:28;3.00;99.90
21662;DHT22;10992;48.170;8.596;2024-03-06T01:32:55;3.00;99.90
21662;DHT22;10992;48.170;8.596;2024-03-06T01:35:22;3.00;99.90
21662;DHT22;10992;48.170;8.596;2024-03-06T01:37:50;3.00;99.90
21662;DHT22;10992;48.170;8.596;2024-03-06T01:40:17;3.00;99.90
21662;DHT22;10992;48.170;8.596;2024-03-06T01:42:46;3.00;99.90
21662;DHT22;10992;48.170;8.596;2024-03-06T01:45:15;3.00;99.90
21662;DHT22;10992;48.170;8.596;2024-03-06T01:47:42;3.00;99.90
21662;DHT22;10992;48.170;8.596;2024-03-06T01:50:09;3.00;99.90
21662;DHT22;10992;48.170;8.596;2024-03-06T01:52:38;3.00;99.90
21662;DHT22;10992;48.170;8.596;2024-03-06T01:55:07;3.00;99.90
21662;DHT22;10992;48.170;8.596;2024-03-06T01:57:38;3.00;99.90
21662;DHT22;10992;48.170;8.596;2024-03-06T02:00:06;2.90;99.90
21662;DHT22;10992;48.170;8.596;2024-03-06T02:02:34;2.90;99.90
21662;DHT22;10992;48.170;8.596;2024-03-06T02:05:01;2.90;99.90
21662;DHT22;10992;48.170;8.596;2024-03-06T02:07:31;2.90;99.90
21662;DHT22;10992;48.170;8.596;2024-03-06T02:09:59;2.90;99.90
21662;DHT22;10992;48.170;8.596;2024-03-06T02:12:25;2.90;99.90
21662;DHT22;10992;48.170;8.596;2024-03-06T02:14:54;2.80;99.90
21662;DHT22;10992;48.170;8.596;2024-03-06T02:17:21;2.80;99.90
21662;DHT22;10992;48.170;8.596;2024-03-06T02:19:48;2.80;99.90
21662;DHT22;10992;48.170;8.596;2024-03-06T02:22:15;2.80;99.90
21662;DHT22;10992;48.170;8.596;2024-03-06T02:24:48;2.80;99.90
21662;DHT22;10992;48.170;8.596;2024-03-06T02:27:15;2.80;99.90
21662;DHT22;10992;48.170;8.596;2024-03-06T02:29:43;2.80;99.90
21662;DHT22;10992;48.170;8.596;2024-03-06T02:32:12;2.80;99.90
21662;DHT22;10992;48.170;8.596;2024-03-06T02:34:40;2.80;99.90
21662;DHT22;10992;48.170;8.596;2024-03-06T02:37:08;2.80;99.90
21662;DHT22;10992;48.170;8.596;2024-03-06T02:39:34;2.90;99.90
21662;DHT22;10992;48.170;8.596;2024-03-06T02:42:01;2.90;99.90
21662;DHT22;10992;48.170;8.596;2024-03-06T02:44:28;3.00;99.90
21662;DHT22;10992;48.170;8.596;2024-03-06T02:46:56;3.00;99.90
21662;DHT22;10992;48.170;8.596;2024-03-06T02:49:23;3.00;99.90
21662;DHT22;10992;48.170;8.596;2024-03-06T02:51:50;3.00;99.90
21662;DHT22;10992;48.170;8.596;2024-03-06T02:54:18;3.00;99.90
21662;DHT22;10992;48.170;8.596;2024-03-06T02:56:45;3.00;99.90
21662;DHT22;10992;48.170;8.596;2024-03-06T02:59:12;2.90;99.90
21662;DHT22;10992;48.170;8.596;2024-03-06T03:01:40;3.00;99.90
21662;DHT22;10992;48.170;8.596;2024-03-06T03:04:08;3.00;99.90
21662;DHT22;10992;48.170;8.596;2024-03-06T03:06:35;2.90;99.90
21662;DHT22;10992;48.170;8.596;2024-03-06T03:09:03;2.90;99.90
21662;DHT22;10992;48.170;8.596;2024-03-06T03:11:32;2.90;99.90
21662;DHT22;10992;48.170;8.596;2024-03-06T03:13:59;2.90;99.90
21662;DHT22;10992;48.170;8.596;2024-03-06T03:16:26;2.90;99.90
21662;DHT22;10992;48.170;8.596;2024-03-06T03:18:53;2.80;99.90
21662;DHT22;10992;48.170;8.596;2024-03-06T03:21:20;2.80;99.90
21662;DHT22;10992;48.170;8.596;2024-03-06T03:23:48;2.80;99.90
21662;DHT22;10992;48.170;8.596;2024-03-06T03:26:16;2.80;99.90
21662;DHT22;10992;48.170;8.596;2024-03-06T03:28:43;2.80;99.90
21662;DHT22;10992;48.170;8.596;2024-03-06T03:31:10;2.80;99.90
21662;DHT22;10992;48.170;8.596;2024-03-06T03:33:40;2.70;99.90
21662;DHT22;10992;48.170;8.596;2024-03-06T03:36:08;2.70;99.90
21662;DHT22;10992;48.170;8.596;2024-03-06T03:38:37;2.70;99.90
21662;DHT22;10992;48.170;8.596;2024-03-06T03:41:12;2.70;99.90
21662;DHT22;10992;48.170;8.596;2024-03-06T03:43:41;2.80;99.90
21662;DHT22;10992;48.170;8.596;2024-03-06T03:46:08;2.70;99.90
21662;DHT22;10992;48.170;8.596;2024-03-06T03:48:36;2.80;99.90
21662;DHT22;10992;48.170;8.596;2024-03-06T03:51:05;2.80;99.90
21662;DHT22;10992;48.170;8.596;2024-03-06T03:53:35;2.80;99.90
21662;DHT22;10992;48.170;8.596;2024-03-06T03:56:02;2.80;99.90
21662;DHT22;10992;48.170;8.596;2024-03-06T03:58:30;2.80;99.90
21662;DHT22;10992;48.170;8.596;2024-03-06T04:00:57;2.80;99.90
21662;DHT22;10992;48.170;8.596;2024-03-06T04:03:23;2.80;99.90
21662;DHT22;10992;48.170;8.596;2024-03-06T04:05:51;2.80;99.90
21662;DHT22;10992;48.170;8.596;2024-03-06T04:08:18;2.70;99.90
21662;DHT22;10992;48.170;8.596;2024-03-06T04:10:45;2.80;99.90
21662;DHT22;10992;48.170;8.596;2024-03-06T04:13:14;2.80;99.90
21662;DHT22;10992;48.170;8.596;2024-03-06T04:15:41;2.70;99.90
21662;DHT22;10992;48.170;8.596;2024-03-06T04:18:08;2.80;99.90
21662;DHT22;10992;48.170;8.596;2024-03-06T04:20:35;2.80;99.90
21662;DHT22;10992;48.170;8.596;2024-03-06T04:23:02;2.80;99.90
21662;DHT22;10992;48.170;8.596;2024-03-06T04:25:29;2.80;99.90
21662;DHT22;10992;48.170;8.596;2024-03-06T04:27:56;2.80;99.90
21662;DHT22;10992;48.170;8.596;2024-03-06T04:30:23;2.80;99.90
21662;DHT22;10992;48.170;8.596;2024-03-06T04:32:50;2.80;99.90
21662;DHT22;10992;48.170;8.596;2024-03-06T04:35:17;2.70;99.90
21662;DHT22;10992;48.170;8.596;2024-03-06T04:37:44;2.70;99.90
21662;DHT22;10992;48.170;8.596;2024-03-06T04:40:11;2.70;99.90
21662;DHT22;10992;48.170;8.596;2024-03-06T04:42:38;2.70;99.90
21662;DHT22;10992;48.170;8.596;2024-03-06T04:45:25;2.70;99.90
21662;DHT22;10992;48.170;8.596;2024-03-06T04:47:52;2.80;99.90
21662;DHT22;10992;48.170;8.596;2024-03-06T04:50:19;2.80;99.90
21662;DHT22;10992;48.170;8.596;2024-03-06T04:52:46;2.80;99.90
21662;DHT22;10992;48.170;8.596;2024-03-06T04:55:13;2.80;99.90
21662;DHT22;10992;48.170;8.596;2024-03-06T04:57:45;2.80;99.90
21662;DHT22;10992;48.170;8.596;2024-03-06T05:00:13;2.80;99.90
21662;DHT22;10992;48.170;8.596;2024-03-06T05:02:39;2.80;99.90
21662;DHT22;10992;48.170;8.596;2024-03-06T05:05:26;2.80;99.90
21662;DHT22;10992;48.170;8.596;2024-03-06T05:08:11;2.80;99.90
21662;DHT22;10992;48.170;8.596;2024-03-06T05:10:55;2.90;99.90
21662;DHT22;10992;48.170;8.596;2024-03-06T05:13:39;2.90;99.90
21662;DHT22;10992;48.170;8.596;2024-03-06T05:16:24;2.80;99.90
21662;DHT22;10992;48.170;8.596;2024-03-06T05:19:09;2.80;99.90
21662;DHT22;10992;48.170;8.596;2024-03-06T05:21:54;2.80;99.90
21662;DHT22;10992;48.170;8.596;2024-03-06T05:24:39;2.80;99.90
21662;DHT22;10992;48.170;8.596;2024-03-06T05:27:24;2.80;99.90
21662;DHT22;10992;48.170;8.596;2024-03-06T05:30:09;2.90;99.90
21662;DHT22;10992;48.170;8.596;2024-03-06T05:32:54;2.90;99.90
21662;DHT22;10992;48.170;8.596;2024-03-06T05:35:38;3.00;99.90
21662;DHT22;10992;48.170;8.596;2024-03-06T05:38:22;3.00;99.90
21662;DHT22;10992;48.170;8.596;2024-03-06T05:41:07;2.90;99.90
21662;DHT22;10992;48.170;8.596;2024-03-06T05:43:52;2.90;99.90
21662;DHT22;10992;48.170;8.596;2024-03-06T05:46:37;2.90;99.90
21662;DHT22;10992;48.170;8.596;2024-03-06T05:49:21;2.90;99.90
21662;DHT22;10992;48.170;8.596;2024-03-06T05:52:05;2.90;99.90
21662;DHT22;10992;48.170;8.596;2024-03-06T05:54:50;2.90;99.90
21662;DHT22;10992;48.170;8.596;2024-03-06T05:57:35;3.00;99.90
21662;DHT22;10992;48.170;8.596;2024-03-06T06:00:20;3.00;99.90
21662;DHT22;10992;48.170;8.596;2024-03-06T06:02:48;3.00;99.90
21662;DHT22;10992;48.170;8.596;2024-03-06T06:05:15;3.10;99.90
21662;DHT22;10992;48.170;8.596;2024-03-06T06:07:50;3.10;99.90
21662;DHT22;10992;48.170;8.596;2024-03-06T06:10:18;3.10;99.90
21662;DHT22;10992;48.170;8.596;2024-03-06T06:12:48;3.10;99.90
21662;DHT22;10992;48.170;8.596;2024-03-06T06:15:15;3.20;99.90
21662;DHT22;10992;48.170;8.596;2024-03-06T06:17:42;3.20;99.90
21662;DHT22;10992;48.170;8.596;2024-03-06T06:20:12;3.10;99.90
21662;DHT22;10992;48.170;8.596;2024-03-06T06:22:43;3.10;99.90
21662;DHT22;10992;48.170;8.596;2024-03-06T06:25:10;3.10;99.90
21662;DHT22;10992;48.170;8.596;2024-03-06T06:27:37;3.10;99.90
21662;DHT22;10992;48.170;8.596;2024-03-06T06:30:05;3.00;99.90
21662;DHT22;10992;48.170;8.596;2024-03-06T06:32:34;3.10;99.90
21662;DHT22;10992;48.170;8.596;2024-03-06T06:35:01;3.10;99.90
21662;DHT22;10992;48.170;8.596;2024-03-06T06:37:28;3.10;99.90
21662;DHT22;10992;48.170;8.596;2024-03-06T06:39:55;3.20;99.90
21662;DHT22;10992;48.170;8.596;2024-03-06T06:42:22;3.30;99.90
21662;DHT22;10992;48.170;8.596;2024-03-06T06:44:51;3.30;99.90
21662;DHT22;10992;48.170;8.596;2024-03-06T06:47:17;3.30;99.90
21662;DHT22;10992;48.170;8.596;2024-03-06T06:49:44;3.30;99.90
21662;DHT22;10992;48.170;8.596;2024-03-06T06:52:11;3.20;99.90
21662;DHT22;10992;48.170;8.596;2024-03-06T06:54:38;3.30;99.90
21662;DHT22;10992;48.170;8.596;2024-03-06T06:57:05;3.40;99.90
21662;DHT22;10992;48.170;8.596;2024-03-06T06:59:32;3.50;99.90
21662;DHT22;10992;48.170;8.596;2024-03-06T07:01:59;3.50;99.90
21662;DHT22;10992;48.170;8.596;2024-03-06T07:04:26;3.40;99.90
21662;DHT22;10992;48.170;8.596;2024-03-06T07:06:53;3.50;99.90
21662;DHT22;10992;48.170;8.596;2024-03-06T07:09:19;3.40;99.90
21662;DHT22;10992;48.170;8.596;2024-03-06T07:11:46;3.40;99.90
21662;DHT22;10992;48.170;8.596;2024-03-06T07:14:13;3.40;99.90
21662;DHT22;10992;48.170;8.596;2024-03-06T07:16:44;3.40;99.90
21662;DHT22;10992;48.170;8.596;2024-03-06T07:19:11;3.50;99.90
21662;DHT22;10992;48.170;8.596;2024-03-06T07:21:39;3.40;99.90
21662;DHT22;10992;48.170;8.596;2024-03-06T07:24:06;3.60;99.90
21662;DHT22;10992;48.170;8.596;2024-03-06T07:26:34;3.50;99.90
21662;DHT22;10992;48.170;8.596;2024-03-06T07:29:01;3.60;99.90
21662;DHT22;10992;48.170;8.596;2024-03-06T07:31:29;3.60;99.90
21662;DHT22;10992;48.170;8.596;2024-03-06T07:33:56;3.60;99.90
21662;DHT22;10992;48.170;8.596;2024-03-06T07:36:23;3.70;99.90
21662;DHT22;10992;48.170;8.596;2024-03-06T07:38:50;3.70;99.90
21662;DHT22;10992;48.170;8.596;2024-03-06T07:41:16;3.70;99.90
21662;DHT22;10992;48.170;8.596;2024-03-06T07:43:43;3.70;99.90
21662;DHT22;10992;48.170;8.596;2024-03-06T07:46:10;3.70;99.90
21662;DHT22;10992;48.170;8.596;2024-03-06T07:48:38;3.70;99.90
21662;DHT22;10992;48.170;8.596;2024-03-06T07:51:05;3.80;99.90
21662;DHT22;10992;48.170;8.596;2024-03-06T07:53:33;3.90;99.90
21662;DHT22;10992;48.170;8.596;2024-03-06T07:56:01;3.90;99.90
21662;DHT22;10992;48.170;8.596;2024-03-06T07:58:28;3.90;99.90
21662;DHT22;10992;48.170;8.596;2024-03-06T08:00:55;3.90;99.90
21662;DHT22;10992;48.170;8.596;2024-03-06T08:03:23;3.80;99.90
21662;DHT22;10992;48.170;8.596;2024-03-06T08:05:52;3.90;99.90
21662;DHT22;10992;48.170;8.596;2024-03-06T08:08:20;3.90;99.90
21662;DHT22;10992;48.170;8.596;2024-03-06T08:10:48;3.90;99.90
21662;DHT22;10992;48.170;8.596;2024-03-06T08:13:15;3.80;99.90
21662;DHT22;10992;48.170;8.596;2024-03-06T08:15:42;3.90;99.90
21662;DHT22;10992;48.170;8.596;2024-03-06T08:18:12;4.00;99.90
21662;DHT22;10992;48.170;8.596;2024-03-06T08:20:40;4.00;99.90
21662;DHT22;10992;48.170;8.596;2024-03-06T08:23:08;4.00;99.90
21662;DHT22;10992;48.170;8.596;2024-03-06T08:25:37;4.00;99.90
21662;DHT22;10992;48.170;8.596;2024-03-06T08:28:04;3.90;99.90
21662;DHT22;10992;48.170;8.596;2024-03-06T08:30:32;3.90;99.90
21662;DHT22;10992;48.170;8.596;2024-03-06T08:32:59;3.90;99.90
21662;DHT22;10992;48.170;8.596;2024-03-06T08:35:27;3.90;99.90
21662;DHT22;10992;48.170;8.596;2024-03-06T08:37:54;3.80;99.90
21662;DHT22;10992;48.170;8.596;2024-03-06T08:40:21;3.90;99.90
21662;DHT22;10992;48.170;8.596;2024-03-06T08:42:50;3.80;99.90
21662;DHT22;10992;48.170;8.596;2024-03-06T08:45:17;4.00;99.90
21662;DHT22;10992;48.170;8.596;2024-03-06T08:47:45;4.00;99.90
21662;DHT22;10992;48.170;8.596;2024-03-06T08:50:13;4.00;99.90
21662;DHT22;10992;48.170;8.596;2024-03-06T08:52:40;4.10;99.90
21662;DHT22;10992;48.170;8.596;2024-03-06T08:55:11;4.10;99.90
21662;DHT22;10992;48.170;8.596;2024-03-06T08:58:03;4.20;99.90
21662;DHT22;10992;48.170;8.596;2024-03-06T09:00:30;4.10;99.90
21662;DHT22;10992;48.170;8.596;2024-03-06T09:02:56;4.40;99.90
21662;DHT22;10992;48.170;8.596;2024-03-06T09:05:23;4.50;99.90
21662;DHT22;10992;48.170;8.596;2024-03-06T09:07:50;4.40;99.90
21662;DHT22;10992;48.170;8.596;2024-03-06T09:10:17;4.60;99.90
21662;DHT22;10992;48.170;8.596;2024-03-06T09:12:46;4.50;99.90
21662;DHT22;10992;48.170;8.596;2024-03-06T09:15:14;4.60;99.90
21662;DHT22;10992;48.170;8.596;2024-03-06T09:17:42;4.70;99.90
21662;DHT22;10992;48.170;8.596;2024-03-06T09:20:09;4.70;99.90
21662;DHT22;10992;48.170;8.596;2024-03-06T09:22:39;4.80;99.90
21662;DHT22;10992;48.170;8.596;2024-03-06T09:25:07;4.80;99.90
21662;DHT22;10992;48.170;8.596;2024-03-06T09:27:34;4.90;99.90
21662;DHT22;10992;48.170;8.596;2024-03-06T09:30:02;4.80;99.90
21662;DHT22;10992;48.170;8.596;2024-03-06T09:32:30;5.10;99.90
21662;DHT22;10992;48.170;8.596;2024-03-06T09:34:58;4.90;99.90
21662;DHT22;10992;48.170;8.596;2024-03-06T09:37:25;4.90;99.90
21662;DHT22;10992;48.170;8.596;2024-03-06T09:39:52;5.00;99.90
21662;DHT22;10992;48.170;8.596;2024-03-06T09:42:19;5.20;99.90
21662;DHT22;10992;48.170;8.596;2024-03-06T09:44:46;5.10;99.90
21662;DHT22;10992;48.170;8.596;2024-03-06T09:47:20;5.00;99.90
21662;DHT22;10992;48.170;8.596;2024-03-06T09:49:54;5.10;99.90
21662;DHT22;10992;48.170;8.596;2024-03-06T09:52:23;5.20;99.90
21662;DHT22;10992;48.170;8.596;2024-03-06T09:54:54;5.30;99.90
21662;DHT22;10992;48.170;8.596;2024-03-06T09:57:21;5.20;99.90
21662;DHT22;10992;48.170;8.596;2024-03-06T09:59:48;5.20;99.90
21662;DHT22;10992;48.170;8.596;2024-03-06T10:02:28;5.20;99.90
21662;DHT22;10992;48.170;8.596;2024-03-06T10:04:57;5.10;99.90
21662;DHT22;10992;48.170;8.596;2024-03-06T10:07:24;5.00;99.90
21662;DHT22;10992;48.170;8.596;2024-03-06T10:09:51;5.00;99.90
21662;DHT22;10992;48.170;8.596;2024-03-06T10:12:18;4.80;99.90
21662;DHT22;10992;48.170;8.596;2024-03-06T10:14:51;4.70;99.90
21662;DHT22;10992;48.170;8.596;2024-03-06T10:17:20;4.80;99.90
21662;DHT22;10992;48.170;8.596;2024-03-06T10:19:49;4.80;99.90
21662;DHT22;10992;48.170;8.596;2024-03-06T10:22:20;4.80;99.90
21662;DHT22;10992;48.170;8.596;2024-03-06T10:24:47;4.90;99.90
21662;DHT22;10992;48.170;8.596;2024-03-06T10:27:15;4.80;99.90
21662;DHT22;10992;48.170;8.596;2024-03-06T10:29:45;4.70;99.90
21662;DHT22;10992;48.170;8.596;2024-03-06T10:32:16;4.90;99.90
21662;DHT22;10992;48.170;8.596;2024-03-06T10:34:45;4.90;99.90
21662;DHT22;10992;48.170;8.596;2024-03-06T10:37:13;4.80;99.90
21662;DHT22;10992;48.170;8.596;2024-03-06T10:39:42;4.70;99.90
21662;DHT22;10992;48.170;8.596;2024-03-06T10:42:13;4.80;99.90
21662;DHT22;10992;48.170;8.596;2024-03-06T10:44:52;4.80;99.90
21662;DHT22;10992;48.170;8.596;2024-03-06T10:47:20;4.80;99.90
21662;DHT22;10992;48.170;8.596;2024-03-06T10:49:48;4.90;99.90
21662;DHT22;10992;48.170;8.596;2024-03-06T10:52:18;4.80;99.90
21662;DHT22;10992;48.170;8.596;2024-03-06T10:54:48;4.80;99.90
21662;DHT22;10992;48.170;8.596;2024-03-06T10:57:15;4.70;99.90
21662;DHT22;10992;48.170;8.596;2024-03-06T10:59:42;4.70;99.90
21662;DHT22;10992;48.170;8.596;2024-03-06T11:02:11;4.70;99.90
21662;DHT22;10992;48.170;8.596;2024-03-06T11:04:39;4.80;99.90
21662;DHT22;10992;48.170;8.596;2024-03-06T11:07:08;4.70;99.90
21662;DHT22;10992;48.170;8.596;2024-03-06T11:09:40;4.70;99.90
21662;DHT22;10992;48.170;8.596;2024-03-06T11:12:07;4.60;99.90
21662;DHT22;10992;48.170;8.596;2024-03-06T11:14:38;4.50;99.90
21662;DHT22;10992;48.170;8.596;2024-03-06T11:17:09;4.50;99.90
21662;DHT22;10992;48.170;8.596;2024-03-06T11:28:21;4.60;99.90
21662;DHT22;10992;48.170;8.596;2024-03-06T11:30:56;4.50;99.90
21662;DHT22;10992;48.170;8.596;2024-03-06T11:33:47;4.50;99.90
21662;DHT22;10992;48.170;8.596;2024-03-06T11:39:06;4.80;99.90
21662;DHT22;10992;48.170;8.596;2024-03-06T11:44:14;4.90;99.90
21662;DHT22;10992;48.170;8.596;2024-03-06T11:46:49;5.00;99.90
21662;DHT22;10992;48.170;8.596;2024-03-06T11:49:21;5.30;99.90
21662;DHT22;10992;48.170;8.596;2024-03-06T11:51:53;5.10;99.90
21662;DHT22;10992;48.170;8.596;2024-03-06T11:54:20;5.10;99.90
21662;DHT22;10992;48.170;8.596;2024-03-06T11:56:52;5.10;99.90
21662;DHT22;10992;48.170;8.596;2024-03-06T11:59:30;5.20;99.90
21662;DHT22;10992;48.170;8.596;2024-03-06T12:02:00;5.20;99.90
21662;DHT22;10992;48.170;8.596;2024-03-06T12:04:35;5.30;99.90
21662;DHT22;10992;48.170;8.596;2024-03-06T12:07:05;5.30;99.90
21662;DHT22;10992;48.170;8.596;2024-03-06T12:09:34;5.30;99.90
21662;DHT22;10992;48.170;8.596;2024-03-06T12:12:07;5.20;99.90
21662;DHT22;10992;48.170;8.596;2024-03-06T12:14:35;5.20;99.90
21662;DHT22;10992;48.170;8.596;2024-03-06T12:17:03;5.10;99.90
21662;DHT22;10992;48.170;8.596;2024-03-06T12:19:37;5.00;99.90
21662;DHT22;10992;48.170;8.596;2024-03-06T12:22:04;5.10;99.90
21662;DHT22;10992;48.170;8.596;2024-03-06T12:24:35;5.00;99.90
21662;DHT22;10992;48.170;8.596;2024-03-06T12:27:07;4.90;99.90
21662;DHT22;10992;48.170;8.596;2024-03-06T12:29:35;4.70;99.90
21662;DHT22;10992;48.170;8.596;2024-03-06T12:32:03;4.60;99.90
21662;DHT22;10992;48.170;8.596;2024-03-06T12:34:30;4.50;99.90
21662;DHT22;10992;48.170;8.596;2024-03-06T12:37:10;4.40;99.90
21662;DHT22;10992;48.170;8.596;2024-03-06T12:39:38;4.30;99.90
21662;DHT22;10992;48.170;8.596;2024-03-06T12:42:09;4.30;99.90
21662;DHT22;10992;48.170;8.596;2024-03-06T12:44:37;4.30;99.90
21662;DHT22;10992;48.170;8.596;2024-03-06T12:47:06;4.30;99.90
21662;DHT22;10992;48.170;8.596;2024-03-06T12:49:33;4.20;99.90
21662;DHT22;10992;48.170;8.596;2024-03-06T12:52:00;4.30;99.90
21662;DHT22;10992;48.170;8.596;2024-03-06T12:54:31;4.30;99.90
21662;DHT22;10992;48.170;8.596;2024-03-06T12:56:58;4.20;99.90
21662;DHT22;10992;48.170;8.596;2024-03-06T12:59:24;4.10;99.90
21662;DHT22;10992;48.170;8.596;2024-03-06T13:01:52;4.10;99.90
21662;DHT22;10992;48.170;8.596;2024-03-06T13:04:19;4.00;99.90
21662;DHT22;10992;48.170;8.596;2024-03-06T13:06:46;4.00;99.90
21662;DHT22;10992;48.170;8.596;2024-03-06T13:09:12;4.10;99.90
21662;DHT22;10992;48.170;8.596;2024-03-06T13:11:40;4.10;99.90
21662;DHT22;10992;48.170;8.596;2024-03-06T13:14:09;4.10;99.90
21662;DHT22;10992;48.170;8.596;2024-03-06T13:16:39;4.20;99.90
21662;DHT22;10992;48.170;8.596;2024-03-06T13:19:07;4.20;99.90
21662;DHT22;10992;48.170;8.596;2024-03-06T13:21:34;4.20;99.90
21662;DHT22;10992;48.170;8.596;2024-03-06T13:24:02;4.10;99.90
21662;DHT22;10992;48.170;8.596;2024-03-06T13:26:29;4.20;99.90
21662;DHT22;10992;48.170;8.596;2024-03-06T13:28:56;4.10;99.90
21662;DHT22;10992;48.170;8.596;2024-03-06T13:31:23;4.20;99.90
21662;DHT22;10992;48.170;8.596;2024-03-06T13:33:50;4.30;99.90
21662;DHT22;10992;48.170;8.596;2024-03-06T13:36:17;4.30;99.90
21662;DHT22;10992;48.170;8.596;2024-03-06T13:38:44;4.30;99.90
21662;DHT22;10992;48.170;8.596;2024-03-06T13:41:11;4.30;99.90
21662;DHT22;10992;48.170;8.596;2024-03-06T13:43:38;4.20;99.90
21662;DHT22;10992;48.170;8.596;2024-03-06T13:46:05;4.30;99.90
21662;DHT22;10992;48.170;8.596;2024-03-06T13:48:32;4.30;99.90
21662;DHT22;10992;48.170;8.596;2024-03-06T13:50:59;4.40;99.90
21662;DHT22;10992;48.170;8.596;2024-03-06T13:53:26;4.40;99.90
21662;DHT22;10992;48.170;8.596;2024-03-06T13:55:53;4.30;99.90
21662;DHT22;10992;48.170;8.596;2024-03-06T13:58:20;4.40;99.90
21662;DHT22;10992;48.170;8.596;2024-03-06T14:00:46;4.40;99.90
21662;DHT22;10992;48.170;8.596;2024-03-06T14:03:13;4.20;99.90
21662;DHT22;10992;48.170;8.596;2024-03-06T14:05:40;4.10;99.90
21662;DHT22;10992;48.170;8.596;2024-03-06T14:08:08;4.10;99.90
21662;DHT22;10992;48.170;8.596;2024-03-06T14:10:39;4.10;99.90
21662;DHT22;10992;48.170;8.596;2024-03-06T14:13:07;4.20;99.90
21662;DHT22;10992;48.170;8.596;2024-03-06T14:15:35;4.20;99.90
21662;DHT22;10992;48.170;8.596;2024-03-06T14:18:05;4.20;99.90
21662;DHT22;10992;48.170;8.596;2024-03-06T14:20:33;4.10;99.90
21662;DHT22;10992;48.170;8.596;2024-03-06T14:23:00;4.00;99.90
21662;DHT22;10992;48.170;8.596;2024-03-06T14:25:27;4.20;99.90
21662;DHT22;10992;48.170;8.596;2024-03-06T14:27:54;4.10;99.90
21662;DHT22;10992;48.170;8.596;2024-03-06T14:30:21;4.10;99.90
21662;DHT22;10992;48.170;8.596;2024-03-06T14:32:48;4.10;99.90
21662;DHT22;10992;48.170;8.596;2024-03-06T14:35:15;4.10;99.90
21662;DHT22;10992;48.170;8.596;2024-03-06T14:37:42;4.10;99.90
21662;DHT22;10992;48.170;8.596;2024-03-06T14:40:09;4.10;99.90
21662;DHT22;10992;48.170;8.596;2024-03-06T14:42:36;4.10;99.90
21662;DHT22;10992;48.170;8.596;2024-03-06T14:45:03;4.20;99.90
21662;DHT22;10992;48.170;8.596;2024-03-06T14:47:32;4.30;99.90
21662;DHT22;10992;48.170;8.596;2024-03-06T14:50:00;4.30;99.90
21662;DHT22;10992;48.170;8.596;2024-03-06T14:52:27;4.40;99.90
21662;DHT22;10992;48.170;8.596;2024-03-06T14:54:54;4.40;99.90
21662;DHT22;10992;48.170;8.596;2024-03-06T14:57:21;4.40;99.90
21662;DHT22;10992;48.170;8.596;2024-03-06T14:59:50;4.50;99.90
21662;DHT22;10992;48.170;8.596;2024-03-06T15:02:17;4.40;99.90
21662;DHT22;10992;48.170;8.596;2024-03-06T15:04:44;4.30;99.90
21662;DHT22;10992;48.170;8.596;2024-03-06T15:07:12;4.30;99.90
21662;DHT22;10992;48.170;8.596;2024-03-06T15:09:39;4.30;99.90
21662;DHT22;10992;48.170;8.596;2024-03-06T15:12:06;4.30;99.90
21662;DHT22;10992;48.170;8.596;2024-03-06T15:14:35;4.20;99.90
21662;DHT22;10992;48.170;8.596;2024-03-06T15:17:12;4.20;99.90
21662;DHT22;10992;48.170;8.596;2024-03-06T15:19:39;4.10;99.90
21662;DHT22;10992;48.170;8.596;2024-03-06T15:22:07;4.10;99.90
21662;DHT22;10992;48.170;8.596;2024-03-06T15:24:34;4.10;99.90
21662;DHT22;10992;48.170;8.596;2024-03-06T15:27:01;4.10;99.90
21662;DHT22;10992;48.170;8.596;2024-03-06T15:29:28;4.00;99.90
21662;DHT22;10992;48.170;8.596;2024-03-06T15:31:55;4.00;99.90
21662;DHT22;10992;48.170;8.596;2024-03-06T15:34:22;4.10;99.90
21662;DHT22;10992;48.170;8.596;2024-03-06T15:36:49;4.00;99.90
21662;DHT22;10992;48.170;8.596;2024-03-06T15:39:17;3.90;99.90
21662;DHT22;10992;48.170;8.596;2024-03-06T15:41:44;3.80;99.90
21662;DHT22;10992;48.170;8.596;2024-03-06T15:44:11;3.90;99.90
21662;DHT22;10992;48.170;8.596;2024-03-06T15:46:38;3.80;99.90
21662;DHT22;10992;48.170;8.596;2024-03-06T15:49:20;3.70;99.90
21662;DHT22;10992;48.170;8.596;2024-03-06T15:51:47;3.60;99.90
21662;DHT22;10992;48.170;8.596;2024-03-06T15:54:14;3.60;99.90
21662;DHT22;10992;48.170;8.596;2024-03-06T15:56:41;3.60;99.90
21662;DHT22;10992;48.170;8.596;2024-03-06T15:59:08;3.50;99.90
21662;DHT22;10992;48.170;8.596;2024-03-06T16:01:35;3.60;99.90
21662;DHT22;10992;48.170;8.596;2024-03-06T16:04:02;3.50;99.90
21662;DHT22;10992;48.170;8.596;2024-03-06T16:06:31;3.40;99.90
21662;DHT22;10992;48.170;8.596;2024-03-06T16:09:06;3.50;99.90
21662;DHT22;10992;48.170;8.596;2024-03-06T16:11:35;3.50;99.90